sensor_id;sensor_type;location;lat;lon;timestamp;pressure;altitude;pressure_sealevel;temperature;humidity
30073;BME280;16897;52.422;13.678;2023-03-15T00:00:37;100364.50;;;5.60;57.22
30073;BME280;16897;52.422;13.678;2023-03-15T00:04:38;100384.19;;;5.64;57.30
30073;BME280;16897;52.422;13.678;2023-03-15T00:08:42;100381.97;;;5.55;57.15
30073;BME280;16897;52.422;13.678;2023-03-15T00:12:47;100396.38;;;5.62;57.34
30073;BME280;16897;52.422;13.678;2023-03-15T00:16:49;100400.72;;;5.62;57.37
30073;BME280;16897;52.422;13.678;2023-03-15T00:20:50;100357.09;;;5.29;57.16
30073;BME280;16897;52.422;13.678;2023-03-15T00:24:52;100398.66;;;5.48;57.09
30073;BME280;16897;52.422;13.678;2023-03-15T00:28:54;100372.00;;;5.24;57.19
30073;BME280;16897;52.422;13.678;2023-03-15T00:32:55;100419.19;;;5.52;57.31
30073;BME280;16897;52.422;13.678;2023-03-15T00:36:57;100380.59;;;5.24;57.15
30073;BME280;16897;52.422;13.678;2023-03-15T00:41:07;100422.50;;;5.34;57.32
30073;BME280;16897;52.422;13.678;2023-03-15T00:45:09;100438.66;;;5.41;57.14
30073;BME280;16897;52.422;13.678;2023-03-15T00:49:11;100450.63;;;5.43;57.32
30073;BME280;16897;52.422;13.678;2023-03-15T00:53:12;100410.44;;;5.11;57.24
30073;BME280;16897;52.422;13.678;2023-03-15T00:57:14;100457.09;;;5.31;57.14
30073;BME280;16897;52.422;13.678;2023-03-15T01:01:18;100445.34;;;5.23;57.15
30073;BME280;16897;52.422;13.678;2023-03-15T01:05:21;100425.41;;;5.03;57.11
30073;BME280;16897;52.422;13.678;2023-03-15T01:09:23;100451.72;;;5.14;57.29
30073;BME280;16897;52.422;13.678;2023-03-15T01:13:25;100457.03;;;5.11;57.25
30073;BME280;16897;52.422;13.678;2023-03-15T01:17:27;100430.34;;;4.85;57.13
30073;BME280;16897;52.422;13.678;2023-03-15T01:21:28;100471.16;;;5.02;57.32
30073;BME280;16897;52.422;13.678;2023-03-15T01:25:30;100472.25;;;4.95;57.37
30073;BME280;16897;52.422;13.678;2023-03-15T01:29:32;100483.44;;;4.96;57.40
30073;BME280;16897;52.422;13.678;2023-03-15T01:33:34;100500.66;;;4.97;57.22
30073;BME280;16897;52.422;13.678;2023-03-15T01:37:35;100487.38;;;4.82;57.21
30073;BME280;16897;52.422;13.678;2023-03-15T01:41:37;100482.53;;;4.73;57.16
30073;BME280;16897;52.422;13.678;2023-03-15T01:50:07;100487.06;;;4.66;57.16
30073;BME280;16897;52.422;13.678;2023-03-15T01:54:32;100526.28;;;4.79;57.21
30073;BME280;16897;52.422;13.678;2023-03-15T01:58:35;100504.31;;;4.66;57.45
30073;BME280;16897;52.422;13.678;2023-03-15T02:02:42;100521.38;;;4.72;57.51
30073;BME280;16897;52.422;13.678;2023-03-15T02:06:59;100518.75;;;4.73;57.50
30073;BME280;16897;52.422;13.678;2023-03-15T02:11:05;100531.50;;;4.78;57.43
30073;BME280;16897;52.422;13.678;2023-03-15T02:15:08;100537.56;;;4.77;57.41
30073;BME280;16897;52.422;13.678;2023-03-15T02:19:26;100544.50;;;4.76;57.27
30073;BME280;16897;52.422;13.678;2023-03-15T02:23:31;100524.16;;;4.65;57.36
30073;BME280;16897;52.422;13.678;2023-03-15T02:27:32;100485.44;;;4.37;57.20
30073;BME280;16897;52.422;13.678;2023-03-15T02:31:36;100508.47;;;4.45;57.36
30073;BME280;16897;52.422;13.678;2023-03-15T02:35:38;100544.78;;;4.67;57.35
30073;BME280;16897;52.422;13.678;2023-03-15T02:39:39;100543.31;;;4.60;57.43
30073;BME280;16897;52.422;13.678;2023-03-15T02:43:41;100500.22;;;4.34;57.21
30073;BME280;16897;52.422;13.678;2023-03-15T02:47:43;100558.63;;;4.66;57.43
30073;BME280;16897;52.422;13.678;2023-03-15T02:51:46;100552.06;;;4.56;57.39
30073;BME280;16897;52.422;13.678;2023-03-15T02:55:48;100553.09;;;4.52;57.38
30073;BME280;16897;52.422;13.678;2023-03-15T02:59:49;100560.72;;;4.55;57.10
30073;BME280;16897;52.422;13.678;2023-03-15T03:03:52;100573.56;;;4.58;57.46
30073;BME280;16897;52.422;13.678;2023-03-15T03:07:54;100587.41;;;4.57;57.37
30073;BME280;16897;52.422;13.678;2023-03-15T03:11:55;100598.56;;;4.57;57.15
30073;BME280;16897;52.422;13.678;2023-03-15T03:15:57;100549.78;;;4.20;57.35
30073;BME280;16897;52.422;13.678;2023-03-15T03:20:06;100610.84;;;4.51;57.35
30073;BME280;16897;52.422;13.678;2023-03-15T03:24:11;100595.75;;;4.38;57.37
30073;BME280;16897;52.422;13.678;2023-03-15T03:28:16;100623.97;;;4.44;57.26
30073;BME280;16897;52.422;13.678;2023-03-15T03:32:18;100624.88;;;4.43;57.52
30073;BME280;16897;52.422;13.678;2023-03-15T03:36:19;100621.63;;;4.37;57.23
30073;BME280;16897;52.422;13.678;2023-03-15T03:40:21;100626.78;;;4.37;57.40
30073;BME280;16897;52.422;13.678;2023-03-15T03:44:23;100573.78;;;3.97;57.40
30073;BME280;16897;52.422;13.678;2023-03-15T03:48:25;100627.03;;;4.29;57.28
30073;BME280;16897;52.422;13.678;2023-03-15T03:52:27;100646.50;;;4.41;57.35
30073;BME280;16897;52.422;13.678;2023-03-15T03:56:35;100641.38;;;4.39;57.47
30073;BME280;16897;52.422;13.678;2023-03-15T04:00:38;100605.06;;;4.16;57.42
30073;BME280;16897;52.422;13.678;2023-03-15T04:04:42;100652.47;;;4.43;57.43
30073;BME280;16897;52.422;13.678;2023-03-15T04:08:49;100620.38;;;4.22;57.34
30073;BME280;16897;52.422;13.678;2023-03-15T04:13:11;100644.97;;;4.34;57.17
30073;BME280;16897;52.422;13.678;2023-03-15T04:17:12;100668.22;;;4.35;57.64
30073;BME280;16897;52.422;13.678;2023-03-15T04:21:15;100665.56;;;4.37;57.53
30073;BME280;16897;52.422;13.678;2023-03-15T04:25:28;100668.22;;;4.35;57.31
30073;BME280;16897;52.422;13.678;2023-03-15T04:29:46;100679.19;;;4.42;57.43
30073;BME280;16897;52.422;13.678;2023-03-15T04:34:10;100681.78;;;4.42;57.48
30073;BME280;16897;52.422;13.678;2023-03-15T04:38:30;100692.09;;;4.43;57.34
30073;BME280;16897;52.422;13.678;2023-03-15T04:43:03;100682.94;;;4.32;57.24
30073;BME280;16897;52.422;13.678;2023-03-15T04:47:15;100713.66;;;4.42;57.34
30073;BME280;16897;52.422;13.678;2023-03-15T04:51:43;100706.78;;;4.43;57.32
30073;BME280;16897;52.422;13.678;2023-03-15T04:56:05;100715.38;;;4.43;57.38
30073;BME280;16897;52.422;13.678;2023-03-15T05:00:13;100703.59;;;4.33;57.38
30073;BME280;16897;52.422;13.678;2023-03-15T05:04:34;100716.56;;;4.32;57.34
30073;BME280;16897;52.422;13.678;2023-03-15T05:09:11;100714.91;;;4.29;57.31
30073;BME280;16897;52.422;13.678;2023-03-15T05:13:48;100727.78;;;4.31;57.21
30073;BME280;16897;52.422;13.678;2023-03-15T05:18:10;100744.16;;;4.31;57.33
30073;BME280;16897;52.422;13.678;2023-03-15T05:22:21;100741.75;;;4.25;57.47
30073;BME280;16897;52.422;13.678;2023-03-15T05:26:40;100744.44;;;4.22;57.44
30073;BME280;16897;52.422;13.678;2023-03-15T05:30:51;100763.19;;;4.29;57.48
30073;BME280;16897;52.422;13.678;2023-03-15T05:35:09;100772.84;;;4.22;57.25
30073;BME280;16897;52.422;13.678;2023-03-15T05:39:34;100750.19;;;4.01;57.49
30073;BME280;16897;52.422;13.678;2023-03-15T05:43:47;100800.38;;;4.23;57.32
30073;BME280;16897;52.422;13.678;2023-03-15T05:48:24;100768.50;;;3.93;57.28
30073;BME280;16897;52.422;13.678;2023-03-15T05:52:39;100808.50;;;4.11;57.38
30073;BME280;16897;52.422;13.678;2023-03-15T05:57:10;100795.72;;;4.05;57.48
30073;BME280;16897;52.422;13.678;2023-03-15T06:01:50;100812.72;;;4.13;57.35
30073;BME280;16897;52.422;13.678;2023-03-15T06:05:58;100822.25;;;4.11;57.59
30073;BME280;16897;52.422;13.678;2023-03-15T06:10:09;100832.47;;;4.16;57.61
30073;BME280;16897;52.422;13.678;2023-03-15T06:14:11;100803.63;;;3.98;57.34
30073;BME280;16897;52.422;13.678;2023-03-15T06:18:23;100832.59;;;4.11;57.39
30073;BME280;16897;52.422;13.678;2023-03-15T06:22:25;100835.34;;;4.05;57.63
30073;BME280;16897;52.422;13.678;2023-03-15T06:26:32;100821.63;;;4.03;57.37
30073;BME280;16897;52.422;13.678;2023-03-15T06:30:37;100871.88;;;4.24;57.41
30073;BME280;16897;52.422;13.678;2023-03-15T06:34:40;100827.72;;;3.99;57.71
30073;BME280;16897;52.422;13.678;2023-03-15T06:38:42;100828.47;;;4.04;57.67
30073;BME280;16897;52.422;13.678;2023-03-15T06:42:45;100865.00;;;4.23;57.45
30073;BME280;16897;52.422;13.678;2023-03-15T06:46:49;100878.56;;;4.31;57.70
30073;BME280;16897;52.422;13.678;2023-03-15T06:50:52;100905.03;;;4.41;57.49
30073;BME280;16897;52.422;13.678;2023-03-15T06:54:53;100892.03;;;4.42;57.59
30073;BME280;16897;52.422;13.678;2023-03-15T06:58:55;100905.69;;;4.48;57.72
30073;BME280;16897;52.422;13.678;2023-03-15T07:02:56;100913.44;;;4.49;57.49
30073;BME280;16897;52.422;13.678;2023-03-15T07:06:57;100915.19;;;4.47;57.83
30073;BME280;16897;52.422;13.678;2023-03-15T07:10:59;100890.44;;;4.38;57.78
30073;BME280;16897;52.422;13.678;2023-03-15T07:15:01;100913.34;;;4.52;57.56
30073;BME280;16897;52.422;13.678;2023-03-15T07:19:03;100901.38;;;4.48;57.60
30073;BME280;16897;52.422;13.678;2023-03-15T07:23:04;100933.75;;;4.63;57.78
30073;BME280;16897;52.422;13.678;2023-03-15T07:27:06;100920.84;;;4.61;57.79
30073;BME280;16897;52.422;13.678;2023-03-15T07:31:08;100904.59;;;4.56;57.67
30073;BME280;16897;52.422;13.678;2023-03-15T07:35:09;100932.50;;;4.76;57.65
30073;BME280;16897;52.422;13.678;2023-03-15T07:39:11;100920.47;;;4.75;57.73
30073;BME280;16897;52.422;13.678;2023-03-15T07:43:13;100924.53;;;4.84;57.82
30073;BME280;16897;52.422;13.678;2023-03-15T07:47:15;100926.94;;;4.90;57.90
30073;BME280;16897;52.422;13.678;2023-03-15T07:51:17;100943.94;;;4.99;57.73
30073;BME280;16897;52.422;13.678;2023-03-15T07:55:18;100936.91;;;5.04;57.82
30073;BME280;16897;52.422;13.678;2023-03-15T07:59:20;100938.47;;;5.09;57.75
30073;BME280;16897;52.422;13.678;2023-03-15T08:03:25;100940.81;;;5.19;57.86
30073;BME280;16897;52.422;13.678;2023-03-15T08:07:27;100950.97;;;5.25;57.97
30073;BME280;16897;52.422;13.678;2023-03-15T08:11:29;100930.38;;;5.20;58.06
30073;BME280;16897;52.422;13.678;2023-03-15T08:15:30;100939.59;;;5.29;57.99
30073;BME280;16897;52.422;13.678;2023-03-15T08:19:32;100903.97;;;5.09;58.00
30073;BME280;16897;52.422;13.678;2023-03-15T08:23:33;100969.88;;;5.57;58.07
30073;BME280;16897;52.422;13.678;2023-03-15T08:27:35;100927.38;;;5.34;57.92
30073;BME280;16897;52.422;13.678;2023-03-15T08:31:37;100957.88;;;5.54;58.00
30073;BME280;16897;52.422;13.678;2023-03-15T08:35:38;100960.13;;;5.65;58.10
30073;BME280;16897;52.422;13.678;2023-03-15T08:39:41;100949.22;;;5.53;57.82
30073;BME280;16897;52.422;13.678;2023-03-15T08:43:42;100981.13;;;5.84;57.88
30073;BME280;16897;52.422;13.678;2023-03-15T08:47:44;100992.97;;;5.91;57.95
30073;BME280;16897;52.422;13.678;2023-03-15T08:51:46;101005.59;;;6.03;58.11
30073;BME280;16897;52.422;13.678;2023-03-15T08:55:47;101002.09;;;6.04;57.87
30073;BME280;16897;52.422;13.678;2023-03-15T08:59:56;101011.28;;;6.14;58.02
30073;BME280;16897;52.422;13.678;2023-03-15T09:03:57;101003.63;;;6.10;58.04
30073;BME280;16897;52.422;13.678;2023-03-15T09:07:59;101021.44;;;6.20;58.03
30073;BME280;16897;52.422;13.678;2023-03-15T09:12:02;101021.16;;;6.30;57.83
30073;BME280;16897;52.422;13.678;2023-03-15T09:16:03;101020.56;;;6.22;57.84
30073;BME280;16897;52.422;13.678;2023-03-15T09:20:06;100985.81;;;6.01;57.88
30073;BME280;16897;52.422;13.678;2023-03-15T09:24:12;100998.41;;;6.11;57.90
30073;BME280;16897;52.422;13.678;2023-03-15T09:28:14;101000.88;;;6.16;57.76
30073;BME280;16897;52.422;13.678;2023-03-15T09:32:16;101031.63;;;6.27;58.00
30073;BME280;16897;52.422;13.678;2023-03-15T09:36:17;100991.78;;;6.03;57.69
30073;BME280;16897;52.422;13.678;2023-03-15T09:40:29;101066.34;;;6.49;57.78
30073;BME280;16897;52.422;13.678;2023-03-15T09:44:45;101053.69;;;6.40;57.94
30073;BME280;16897;52.422;13.678;2023-03-15T09:49:04;101063.00;;;6.46;58.03
30073;BME280;16897;52.422;13.678;2023-03-15T09:53:18;101077.31;;;6.57;58.03
30073;BME280;16897;52.422;13.678;2023-03-15T09:57:25;101067.75;;;6.59;58.00
30073;BME280;16897;52.422;13.678;2023-03-15T10:01:37;101075.22;;;6.69;57.96
30073;BME280;16897;52.422;13.678;2023-03-15T10:05:42;101080.13;;;6.78;57.82
30073;BME280;16897;52.422;13.678;2023-03-15T10:09:44;101079.25;;;6.77;57.90
30073;BME280;16897;52.422;13.678;2023-03-15T10:22:24;101111.03;;;6.84;57.78
30073;BME280;16897;52.422;13.678;2023-03-15T10:26:29;101118.84;;;6.84;57.88
30073;BME280;16897;52.422;13.678;2023-03-15T10:30:35;101117.13;;;6.83;57.92
30073;BME280;16897;52.422;13.678;2023-03-15T10:34:37;101104.25;;;6.80;57.92
30073;BME280;16897;52.422;13.678;2023-03-15T10:38:39;101122.13;;;6.89;57.81
30073;BME280;16897;52.422;13.678;2023-03-15T10:42:44;101120.31;;;6.91;57.87
30073;BME280;16897;52.422;13.678;2023-03-15T10:46:59;101129.19;;;7.11;57.95
30073;BME280;16897;52.422;13.678;2023-03-15T10:51:22;101130.84;;;7.13;57.98
30073;BME280;16897;52.422;13.678;2023-03-15T10:55:43;101116.31;;;7.07;57.90
30073;BME280;16897;52.422;13.678;2023-03-15T11:00:11;101127.28;;;7.16;57.66
30073;BME280;16897;52.422;13.678;2023-03-15T11:04:25;101077.56;;;7.01;57.77
30073;BME280;16897;52.422;13.678;2023-03-15T11:08:40;101112.78;;;7.34;58.08
30073;BME280;16897;52.422;13.678;2023-03-15T11:12:41;101130.31;;;7.52;57.82
30073;BME280;16897;52.422;13.678;2023-03-15T11:16:47;101123.81;;;7.64;57.77
30073;BME280;16897;52.422;13.678;2023-03-15T11:20:49;101120.38;;;7.63;57.77
30073;BME280;16897;52.422;13.678;2023-03-15T11:24:54;101121.09;;;7.67;57.81
30073;BME280;16897;52.422;13.678;2023-03-15T11:29:26;101135.53;;;7.75;57.71
30073;BME280;16897;52.422;13.678;2023-03-15T11:33:42;101137.78;;;7.85;57.71
30073;BME280;16897;52.422;13.678;2023-03-15T11:37:48;101103.38;;;7.78;57.83
30073;BME280;16897;52.422;13.678;2023-03-15T11:41:57;101108.75;;;7.97;57.86
30073;BME280;16897;52.422;13.678;2023-03-15T11:46:03;101128.53;;;8.23;58.04
30073;BME280;16897;52.422;13.678;2023-03-15T11:50:17;101125.44;;;8.35;57.82
30073;BME280;16897;52.422;13.678;2023-03-15T11:54:19;101093.94;;;8.21;57.88
30073;BME280;16897;52.422;13.678;2023-03-15T11:58:33;101083.56;;;8.19;57.56
30073;BME280;16897;52.422;13.678;2023-03-15T12:02:41;101131.91;;;8.49;57.60
30073;BME280;16897;52.422;13.678;2023-03-15T12:06:47;101145.94;;;8.45;57.56
30073;BME280;16897;52.422;13.678;2023-03-15T12:10:49;101121.22;;;8.33;57.52
30073;BME280;16897;52.422;13.678;2023-03-15T12:19:18;101133.84;;;8.44;57.65
30073;BME280;16897;52.422;13.678;2023-03-15T12:23:29;101142.19;;;8.52;57.66
30073;BME280;16897;52.422;13.678;2023-03-15T12:27:33;101128.50;;;8.47;57.46
30073;BME280;16897;52.422;13.678;2023-03-15T12:31:51;101136.13;;;8.51;57.50
30073;BME280;16897;52.422;13.678;2023-03-15T12:35:59;101155.47;;;8.66;57.60
30073;BME280;16897;52.422;13.678;2023-03-15T12:48:21;101146.78;;;8.67;57.47
30073;BME280;16897;52.422;13.678;2023-03-15T12:56:41;101147.06;;;8.81;57.32
30073;BME280;16897;52.422;13.678;2023-03-15T13:00:44;101141.00;;;8.81;57.64
30073;BME280;16897;52.422;13.678;2023-03-15T13:04:46;101172.13;;;9.04;57.38
30073;BME280;16897;52.422;13.678;2023-03-15T13:17:55;101176.19;;;9.12;57.43
30073;BME280;16897;52.422;13.678;2023-03-15T13:22:30;101192.28;;;9.21;57.08
30073;BME280;16897;52.422;13.678;2023-03-15T13:31:00;101182.25;;;9.12;57.09
30073;BME280;16897;52.422;13.678;2023-03-15T13:35:09;101169.34;;;9.09;57.14
30073;BME280;16897;52.422;13.678;2023-03-15T13:43:18;101184.13;;;9.08;56.95
30073;BME280;16897;52.422;13.678;2023-03-15T13:47:20;101181.72;;;9.04;56.98
30073;BME280;16897;52.422;13.678;2023-03-15T13:51:40;101156.38;;;8.87;56.86
30073;BME280;16897;52.422;13.678;2023-03-15T13:55:47;101173.44;;;8.94;56.92
30073;BME280;16897;52.422;13.678;2023-03-15T13:59:57;101188.63;;;9.05;56.80
30073;BME280;16897;52.422;13.678;2023-03-15T14:04:04;101148.75;;;8.82;56.72
30073;BME280;16897;52.422;13.678;2023-03-15T14:08:21;101193.97;;;9.02;56.76
30073;BME280;16897;52.422;13.678;2023-03-15T14:12:24;101176.06;;;8.94;56.80
30073;BME280;16897;52.422;13.678;2023-03-15T14:16:42;101189.78;;;8.98;56.86
30073;BME280;16897;52.422;13.678;2023-03-15T14:20:45;101180.38;;;8.94;56.76
30073;BME280;16897;52.422;13.678;2023-03-15T14:24:49;101228.44;;;9.08;56.50
30073;BME280;16897;52.422;13.678;2023-03-15T14:29:03;101245.28;;;9.00;56.39
30073;BME280;16897;52.422;13.678;2023-03-15T14:38:01;101257.91;;;8.89;56.57
30073;BME280;16897;52.422;13.678;2023-03-15T14:42:03;101244.31;;;8.80;56.58
30073;BME280;16897;52.422;13.678;2023-03-15T14:46:07;101217.00;;;8.69;56.70
30073;BME280;16897;52.422;13.678;2023-03-15T14:50:12;101238.06;;;8.84;56.59
30073;BME280;16897;52.422;13.678;2023-03-15T14:54:15;101225.09;;;8.83;56.65
30073;BME280;16897;52.422;13.678;2023-03-15T14:58:19;101237.78;;;8.92;56.63
30073;BME280;16897;52.422;13.678;2023-03-15T15:02:21;101222.31;;;8.88;56.55
30073;BME280;16897;52.422;13.678;2023-03-15T15:06:24;101221.66;;;8.82;56.51
30073;BME280;16897;52.422;13.678;2023-03-15T15:10:27;101134.16;;;8.34;56.40
30073;BME280;16897;52.422;13.678;2023-03-15T15:14:28;101224.03;;;8.89;56.51
30073;BME280;16897;52.422;13.678;2023-03-15T15:18:32;101212.94;;;8.83;56.47
30073;BME280;16897;52.422;13.678;2023-03-15T15:22:34;101191.13;;;8.64;56.19
30073;BME280;16897;52.422;13.678;2023-03-15T15:26:35;101252.56;;;8.92;56.37
30073;BME280;16897;52.422;13.678;2023-03-15T15:30:37;101254.50;;;8.86;56.28
30073;BME280;16897;52.422;13.678;2023-03-15T15:34:39;101235.84;;;8.75;56.20
30073;BME280;16897;52.422;13.678;2023-03-15T15:38:43;101253.03;;;8.79;56.24
30073;BME280;16897;52.422;13.678;2023-03-15T15:42:45;101246.00;;;8.81;56.46
30073;BME280;16897;52.422;13.678;2023-03-15T15:46:47;101250.31;;;8.82;56.19
30073;BME280;16897;52.422;13.678;2023-03-15T15:50:48;101257.94;;;8.87;56.16
30073;BME280;16897;52.422;13.678;2023-03-15T15:54:50;101252.78;;;8.85;56.36
30073;BME280;16897;52.422;13.678;2023-03-15T15:58:52;101229.16;;;8.68;56.13
30073;BME280;16897;52.422;13.678;2023-03-15T16:02:54;101250.56;;;8.76;56.25
30073;BME280;16897;52.422;13.678;2023-03-15T16:07:00;101242.91;;;8.72;56.04
30073;BME280;16897;52.422;13.678;2023-03-15T16:11:03;101244.84;;;8.67;56.20
30073;BME280;16897;52.422;13.678;2023-03-15T16:15:05;101254.50;;;8.64;56.26
30073;BME280;16897;52.422;13.678;2023-03-15T16:19:07;101249.75;;;8.52;56.20
30073;BME280;16897;52.422;13.678;2023-03-15T16:23:15;101265.25;;;8.55;55.98
30073;BME280;16897;52.422;13.678;2023-03-15T16:27:23;101290.94;;;8.64;56.00
30073;BME280;16897;52.422;13.678;2023-03-15T16:31:27;101306.44;;;8.68;56.03
30073;BME280;16897;52.422;13.678;2023-03-15T16:35:34;101297.38;;;8.54;56.01
30073;BME280;16897;52.422;13.678;2023-03-15T16:39:36;101311.97;;;8.58;55.88
30073;BME280;16897;52.422;13.678;2023-03-15T16:43:38;101352.66;;;8.61;55.95
30073;BME280;16897;52.422;13.678;2023-03-15T16:47:39;101362.06;;;8.41;55.94
30073;BME280;16897;52.422;13.678;2023-03-15T16:51:43;101341.34;;;8.13;55.79
30073;BME280;16897;52.422;13.678;2023-03-15T16:55:45;101385.34;;;8.19;55.85
30073;BME280;16897;52.422;13.678;2023-03-15T16:59:46;101378.75;;;8.09;55.98
30073;BME280;16897;52.422;13.678;2023-03-15T17:03:48;101319.47;;;7.69;56.04
30073;BME280;16897;52.422;13.678;2023-03-15T17:07:51;101377.47;;;7.96;56.08
30073;BME280;16897;52.422;13.678;2023-03-15T17:11:53;101360.75;;;7.78;56.11
30073;BME280;16897;52.422;13.678;2023-03-15T17:15:57;101333.59;;;7.62;55.81
30073;BME280;16897;52.422;13.678;2023-03-15T17:19:58;101406.09;;;7.96;55.93
30073;BME280;16897;52.422;13.678;2023-03-15T17:23:59;101394.47;;;7.81;55.65
30073;BME280;16897;52.422;13.678;2023-03-15T17:28:02;101393.69;;;7.78;55.75
30073;BME280;16897;52.422;13.678;2023-03-15T17:32:09;101426.16;;;7.92;55.88
30073;BME280;16897;52.422;13.678;2023-03-15T17:36:12;101428.16;;;7.84;55.80
30073;BME280;16897;52.422;13.678;2023-03-15T17:40:23;101431.84;;;7.77;55.74
30073;BME280;16897;52.422;13.678;2023-03-15T17:44:25;101425.16;;;7.70;55.66
30073;BME280;16897;52.422;13.678;2023-03-15T17:48:26;101446.59;;;7.76;55.61
30073;BME280;16897;52.422;13.678;2023-03-15T17:52:28;101432.28;;;7.63;55.78
30073;BME280;16897;52.422;13.678;2023-03-15T17:56:29;101437.47;;;7.63;55.77
30073;BME280;16897;52.422;13.678;2023-03-15T18:00:31;101442.16;;;7.52;55.69
30073;BME280;16897;52.422;13.678;2023-03-15T18:04:33;101462.63;;;7.63;55.76
30073;BME280;16897;52.422;13.678;2023-03-15T18:08:34;101439.88;;;7.43;55.53
30073;BME280;16897;52.422;13.678;2023-03-15T18:12:35;101463.94;;;7.48;55.67
30073;BME280;16897;52.422;13.678;2023-03-15T18:16:37;101435.88;;;7.31;55.66
30073;BME280;16897;52.422;13.678;2023-03-15T18:20:39;101466.06;;;7.35;55.50
30073;BME280;16897;52.422;13.678;2023-03-15T18:24:41;101482.38;;;7.40;55.48
30073;BME280;16897;52.422;13.678;2023-03-15T18:28:43;101484.19;;;7.37;55.62
30073;BME280;16897;52.422;13.678;2023-03-15T18:32:45;101478.44;;;7.27;55.70
30073;BME280;16897;52.422;13.678;2023-03-15T18:36:47;101483.56;;;7.28;55.67
30073;BME280;16897;52.422;13.678;2023-03-15T18:40:49;101483.88;;;7.18;55.55
30073;BME280;16897;52.422;13.678;2023-03-15T18:44:52;101498.53;;;7.20;55.75
30073;BME280;16897;52.422;13.678;2023-03-15T18:48:53;101495.47;;;7.06;55.63
30073;BME280;16897;52.422;13.678;2023-03-15T18:52:56;101499.03;;;7.03;55.64
30073;BME280;16897;52.422;13.678;2023-03-15T18:56:57;101495.91;;;6.91;55.50
30073;BME280;16897;52.422;13.678;2023-03-15T19:00:59;101513.88;;;6.98;55.60
30073;BME280;16897;52.422;13.678;2023-03-15T19:05:00;101515.75;;;6.93;55.35
30073;BME280;16897;52.422;13.678;2023-03-15T19:09:03;101508.31;;;6.79;55.68
30073;BME280;16897;52.422;13.678;2023-03-15T19:13:05;101514.66;;;6.69;55.46
30073;BME280;16897;52.422;13.678;2023-03-15T19:17:07;101490.91;;;6.50;55.48
30073;BME280;16897;52.422;13.678;2023-03-15T19:21:09;101459.56;;;6.27;55.64
30073;BME280;16897;52.422;13.678;2023-03-15T19:25:11;101518.50;;;6.54;55.65
30073;BME280;16897;52.422;13.678;2023-03-15T19:29:14;101545.94;;;6.64;55.55
30073;BME280;16897;52.422;13.678;2023-03-15T19:33:15;101529.75;;;6.53;55.57
30073;BME280;16897;52.422;13.678;2023-03-15T19:37:17;101529.94;;;6.47;55.72
30073;BME280;16897;52.422;13.678;2023-03-15T19:41:18;101534.38;;;6.42;55.51
30073;BME280;16897;52.422;13.678;2023-03-15T19:45:20;101553.16;;;6.52;55.54
30073;BME280;16897;52.422;13.678;2023-03-15T19:49:22;101568.66;;;6.55;55.57
30073;BME280;16897;52.422;13.678;2023-03-15T19:53:24;101564.50;;;6.48;55.55
30073;BME280;16897;52.422;13.678;2023-03-15T19:57:26;101540.81;;;6.27;55.71
30073;BME280;16897;52.422;13.678;2023-03-15T20:01:27;101558.81;;;6.32;55.55
30073;BME280;16897;52.422;13.678;2023-03-15T20:05:29;101525.75;;;6.06;55.55
30073;BME280;16897;52.422;13.678;2023-03-15T20:09:30;101569.44;;;6.21;55.69
30073;BME280;16897;52.422;13.678;2023-03-15T20:13:38;101536.28;;;5.98;55.67
30073;BME280;16897;52.422;13.678;2023-03-15T20:17:39;101590.25;;;6.19;55.68
30073;BME280;16897;52.422;13.678;2023-03-15T20:21:41;101584.41;;;6.10;55.75
30073;BME280;16897;52.422;13.678;2023-03-15T20:25:44;101576.88;;;5.99;55.61
30073;BME280;16897;52.422;13.678;2023-03-15T20:29:45;101544.66;;;5.70;55.57
30073;BME280;16897;52.422;13.678;2023-03-15T20:33:48;101598.50;;;6.00;55.56
30073;BME280;16897;52.422;13.678;2023-03-15T20:37:50;101559.31;;;5.71;55.55
30073;BME280;16897;52.422;13.678;2023-03-15T20:41:53;101599.41;;;5.97;55.62
30073;BME280;16897;52.422;13.678;2023-03-15T20:45:55;101551.81;;;5.59;55.71
30073;BME280;16897;52.422;13.678;2023-03-15T20:49:59;101612.44;;;5.91;55.73
30073;BME280;16897;52.422;13.678;2023-03-15T20:54:01;101625.41;;;5.91;55.74
30073;BME280;16897;52.422;13.678;2023-03-15T20:58:03;101622.13;;;5.83;55.54
30073;BME280;16897;52.422;13.678;2023-03-15T21:02:05;101610.38;;;5.66;55.55
30073;BME280;16897;52.422;13.678;2023-03-15T21:06:07;101599.53;;;5.49;55.77
30073;BME280;16897;52.422;13.678;2023-03-15T21:10:09;101613.22;;;5.54;55.79
30073;BME280;16897;52.422;13.678;2023-03-15T21:14:10;101615.91;;;5.49;55.72
30073;BME280;16897;52.422;13.678;2023-03-15T21:18:13;101621.09;;;5.48;55.58
30073;BME280;16897;52.422;13.678;2023-03-15T21:22:15;101627.16;;;5.48;55.72
30073;BME280;16897;52.422;13.678;2023-03-15T21:26:18;101634.97;;;5.45;55.57
30073;BME280;16897;52.422;13.678;2023-03-15T21:30:19;101590.75;;;5.11;55.64
30073;BME280;16897;52.422;13.678;2023-03-15T21:34:21;101651.47;;;5.41;55.68
30073;BME280;16897;52.422;13.678;2023-03-15T21:38:23;101640.41;;;5.31;55.77
30073;BME280;16897;52.422;13.678;2023-03-15T21:42:25;101608.13;;;5.04;55.64
30073;BME280;16897;52.422;13.678;2023-03-15T21:46:27;101651.84;;;5.20;55.49
30073;BME280;16897;52.422;13.678;2023-03-15T21:50:28;101646.94;;;5.06;55.49
30073;BME280;16897;52.422;13.678;2023-03-15T21:54:30;101638.50;;;4.95;55.65
30073;BME280;16897;52.422;13.678;2023-03-15T21:58:31;101671.13;;;5.03;55.62
30073;BME280;16897;52.422;13.678;2023-03-15T22:02:33;101654.94;;;4.91;55.55
30073;BME280;16897;52.422;13.678;2023-03-15T22:06:34;101637.91;;;4.77;55.75
30073;BME280;16897;52.422;13.678;2023-03-15T22:10:36;101675.72;;;4.86;55.67
30073;BME280;16897;52.422;13.678;2023-03-15T22:14:37;101602.31;;;4.39;55.54